createdAt,value
2019-04-01T00:02:03.199Z,12.90
2019-04-01T00:04:43.877Z,12.60
2019-04-01T00:07:24.989Z,11.50
2019-04-01T00:10:06.569Z,8.40
2019-04-01T00:12:47.660Z,6.93
2019-04-01T00:15:28.831Z,7.60
2019-04-01T00:18:10.213Z,5.17
2019-04-01T00:20:50.800Z,10.33
2019-04-01T00:23:32.205Z,10.50
2019-04-01T00:26:13.596Z,10.63
2019-04-01T00:28:54.139Z,12.77
2019-04-01T00:31:35.354Z,12.23
2019-04-01T00:34:16.262Z,12.70
2019-04-01T00:36:57.089Z,16.90
2019-04-01T00:39:38.248Z,6.90
2019-04-01T00:45:32.606Z,17.07
2019-04-01T00:48:14.053Z,8.50
2019-04-01T00:50:54.711Z,5.63
2019-04-01T00:53:35.292Z,7.70
2019-04-01T00:56:16.721Z,4.40
2019-04-01T00:58:57.315Z,6.80
2019-04-01T01:01:37.893Z,7.30
2019-04-01T01:04:19.155Z,13.40
2019-04-01T01:06:59.822Z,8.13
2019-04-01T01:09:40.464Z,7.30
2019-04-01T01:12:21.247Z,12.80
2019-04-01T01:15:02.208Z,10.43
2019-04-01T01:17:43.068Z,10.43
2019-04-01T01:20:24.129Z,14.83
2019-04-01T01:23:05.447Z,19.67
2019-04-01T01:25:46.581Z,4.77
2019-04-01T01:28:27.384Z,7.33
2019-04-01T01:31:08.440Z,8.20
2019-04-01T01:33:49.610Z,5.40
2019-04-01T01:36:30.916Z,5.80
2019-04-01T01:39:12.071Z,6.63
2019-04-01T01:41:52.568Z,10.67
2019-04-01T01:44:34.056Z,8.10
2019-04-01T01:47:15.108Z,12.90
2019-04-01T01:49:56.304Z,7.30
2019-04-01T01:52:37.881Z,7.50
2019-04-01T01:55:18.849Z,13.03
2019-04-01T01:57:59.749Z,6.73
2019-04-01T02:00:41.938Z,5.70
2019-04-01T02:03:22.994Z,6.33
2019-04-01T02:06:03.940Z,12.43
2019-04-01T02:08:44.855Z,7.10
2019-04-01T02:14:38.149Z,9.43
2019-04-01T02:17:19.278Z,12.60
2019-04-01T02:20:00.398Z,6.00
2019-04-01T02:22:41.805Z,14.20
2019-04-01T02:25:22.646Z,9.80
2019-04-01T02:28:03.897Z,5.37
2019-04-01T02:30:45.236Z,5.67
2019-04-01T02:33:26.365Z,4.90
2019-04-01T02:36:07.562Z,6.90
2019-04-01T02:38:49.003Z,8.10
2019-04-01T02:44:45.745Z,6.23
2019-04-01T02:47:27.153Z,6.57
2019-04-01T02:50:08.476Z,5.10
2019-04-01T02:52:49.624Z,5.37
2019-04-01T02:55:30.177Z,6.90
2019-04-01T02:58:11.110Z,6.80
2019-04-01T03:00:52.099Z,5.63
2019-04-01T03:03:32.612Z,11.90
2019-04-01T03:06:13.678Z,8.37
2019-04-01T03:08:54.596Z,7.60
2019-04-01T03:11:35.885Z,12.63
2019-04-01T03:14:17.253Z,6.17
2019-04-01T03:16:58.373Z,6.90
2019-04-01T03:19:27.681Z,12.80
2019-04-01T03:22:16.115Z,14.87
2019-04-01T03:25:04.715Z,9.30
2019-04-01T03:27:53.180Z,6.20
2019-04-01T03:30:41.624Z,7.57
2019-04-01T03:33:32.663Z,5.90
2019-04-01T03:36:21.139Z,7.30
2019-04-01T03:39:09.543Z,7.90
2019-04-01T03:41:57.964Z,7.27
2019-04-01T03:44:46.380Z,7.23
2019-04-01T03:47:34.751Z,12.33
2019-04-01T03:50:15.409Z,8.77
2019-04-01T03:52:56.762Z,6.40
2019-04-01T03:55:37.441Z,7.80
2019-04-01T03:58:18.796Z,8.37
2019-04-01T04:01:00.351Z,13.40
2019-04-01T04:03:41.339Z,7.70
2019-04-01T04:06:22.518Z,9.73
2019-04-01T04:09:05.332Z,9.17
2019-04-01T04:11:46.566Z,9.53
2019-04-01T04:14:27.169Z,10.27
2019-04-01T04:17:08.514Z,7.10
2019-04-01T04:19:49.989Z,8.03
2019-04-01T04:25:12.788Z,12.90
2019-04-01T04:27:54.031Z,11.60
2019-04-01T04:30:35.050Z,7.30
2019-04-01T04:33:16.312Z,6.20
2019-04-01T04:35:57.695Z,7.40
2019-04-01T04:38:39.313Z,8.50
2019-04-01T04:41:20.620Z,9.80
2019-04-01T04:44:01.590Z,7.60
2019-04-01T04:46:42.785Z,4.80
2019-04-01T04:49:24.360Z,10.17
2019-04-01T04:52:05.400Z,6.83
2019-04-01T04:54:46.790Z,7.77
2019-04-01T04:57:28.252Z,7.60
2019-04-01T05:00:09.438Z,7.57
2019-04-01T05:02:50.807Z,10.50
2019-04-01T05:05:31.988Z,7.23
2019-04-01T05:08:13.078Z,6.67
2019-04-01T05:10:53.789Z,6.70
2019-04-01T05:13:37.907Z,10.33
2019-04-01T05:16:17.155Z,6.23
2019-04-01T05:18:57.779Z,8.57
2019-04-01T05:21:38.794Z,6.73
2019-04-01T05:24:20.116Z,7.87
2019-04-01T05:27:01.479Z,10.73
2019-04-01T05:29:42.374Z,5.33
2019-04-01T05:32:23.624Z,7.03
2019-04-01T05:35:05.219Z,8.37
2019-04-01T05:37:46.041Z,14.40
2019-04-01T05:40:27.354Z,6.97
2019-04-01T05:43:08.525Z,10.53
2019-04-01T05:45:49.684Z,7.00
2019-04-01T05:48:31.634Z,8.43
2019-04-01T05:51:12.580Z,14.50
2019-04-01T05:53:56.044Z,11.03
2019-04-01T05:56:36.679Z,44.80
2019-04-01T05:59:17.897Z,9.47
2019-04-01T06:01:59.052Z,9.57
2019-04-01T06:04:40.292Z,9.00
2019-04-01T06:07:21.406Z,7.10
2019-04-01T06:10:02.773Z,12.77
2019-04-01T06:12:43.733Z,12.40
2019-04-01T06:15:25.090Z,7.27
2019-04-01T06:18:06.188Z,5.77
2019-04-01T06:20:47.314Z,7.47
2019-04-01T06:23:27.972Z,8.90
2019-04-01T06:26:09.025Z,15.10
2019-04-01T06:28:50.418Z,5.13
2019-04-01T06:31:31.607Z,7.90
2019-04-01T06:34:12.769Z,9.10
2019-04-01T06:36:53.907Z,10.00
2019-04-01T06:39:35.412Z,13.27
2019-04-01T06:42:16.840Z,8.37
2019-04-01T06:44:58.081Z,6.23
2019-04-01T06:47:39.402Z,12.83
2019-04-01T06:50:20.111Z,13.40
2019-04-01T06:53:01.471Z,11.97
2019-04-01T06:55:42.826Z,12.20
2019-04-01T06:58:23.407Z,11.10
2019-04-01T07:01:04.909Z,12.87
2019-04-01T07:03:45.953Z,11.47
2019-04-01T07:06:26.702Z,8.17
2019-04-01T07:09:07.712Z,9.70
2019-04-01T07:11:48.754Z,10.10
2019-04-01T07:14:30.126Z,8.50
2019-04-01T07:17:11.235Z,22.67
2019-04-01T07:19:52.497Z,11.70
2019-04-01T07:22:33.082Z,9.97
2019-04-01T07:25:14.418Z,12.90
2019-04-01T07:27:55.678Z,12.13
2019-04-01T07:30:36.259Z,15.20
2019-04-01T07:33:17.403Z,15.53
2019-04-01T07:35:58.382Z,15.90
2019-04-01T07:38:38.954Z,9.53
2019-04-01T07:41:20.229Z,7.00
2019-04-01T07:44:01.011Z,11.23
2019-04-01T07:46:41.808Z,9.20
2019-04-01T07:49:23.158Z,8.87
2019-04-01T07:52:04.586Z,11.50
2019-04-01T07:54:45.889Z,17.17
2019-04-01T07:57:26.547Z,8.27
2019-04-01T08:00:08.086Z,11.17
2019-04-01T08:02:49.336Z,11.57
2019-04-01T08:05:30.389Z,10.67
2019-04-01T08:08:11.749Z,7.83
2019-04-01T08:10:53.088Z,11.40
2019-04-01T08:13:34.468Z,15.50
2019-04-01T08:16:15.597Z,15.90
2019-04-01T08:18:56.792Z,14.20
2019-04-01T08:21:38.156Z,14.40
2019-04-01T08:24:19.758Z,12.47
2019-04-01T08:27:00.845Z,12.17
2019-04-01T08:29:42.187Z,17.00
2019-04-01T08:32:13.890Z,12.87
2019-04-01T08:35:01.137Z,16.23
2019-04-01T08:37:49.641Z,12.80
2019-04-01T08:40:38.211Z,11.87
2019-04-01T08:43:26.654Z,13.00
2019-04-01T08:46:15.030Z,16.03
2019-04-01T08:48:56.024Z,16.03
2019-04-01T08:51:37.217Z,15.27
2019-04-01T08:54:18.451Z,14.30
2019-04-01T08:56:59.913Z,16.33
2019-04-01T08:59:40.467Z,11.83
2019-04-01T09:02:21.431Z,15.50
2019-04-01T09:05:02.721Z,17.77
2019-04-01T09:07:43.685Z,16.00
2019-04-01T09:10:24.428Z,14.90
2019-04-01T09:13:05.977Z,18.97
2019-04-01T09:15:47.463Z,15.37
2019-04-01T09:18:28.268Z,19.00
2019-04-01T09:21:09.414Z,13.70
2019-04-01T09:23:52.289Z,16.67
2019-04-01T09:26:33.978Z,17.87
2019-04-01T09:29:15.132Z,17.90
2019-04-01T09:31:55.943Z,15.10
2019-04-01T09:34:37.001Z,12.30
2019-04-01T09:37:18.633Z,16.13
2019-04-01T09:39:59.209Z,17.87
2019-04-01T09:42:39.866Z,17.07
2019-04-01T09:45:21.389Z,17.60
2019-04-01T09:48:02.375Z,14.97
2019-04-01T09:50:43.393Z,15.37
2019-04-01T09:53:24.525Z,15.80
2019-04-01T09:55:54.287Z,13.93
2019-04-01T09:58:42.698Z,13.33
2019-04-01T10:01:31.094Z,12.47
2019-04-01T10:04:21.088Z,16.60
2019-04-01T10:07:09.479Z,14.27
2019-04-01T10:09:58.025Z,15.47
2019-04-01T10:16:14.406Z,14.30
2019-04-01T10:19:02.870Z,17.27
2019-04-01T10:21:51.357Z,15.90
2019-04-01T10:24:39.768Z,15.53
2019-04-01T10:27:28.315Z,15.47
2019-04-01T10:30:16.789Z,14.60
2019-04-01T10:33:05.537Z,18.10
2019-04-01T10:35:53.925Z,17.67
2019-04-01T10:38:42.298Z,18.17
2019-04-01T10:41:30.920Z,25.73
2019-04-01T10:44:19.417Z,18.90
2019-04-01T10:47:07.853Z,24.43
2019-04-01T10:49:48.761Z,21.73
2019-04-01T10:52:30.090Z,19.17
2019-04-01T10:55:11.633Z,20.70
2019-04-01T10:57:54.094Z,18.83
2019-04-01T11:00:35.296Z,17.10
2019-04-01T11:03:16.825Z,21.47
2019-04-01T11:05:58.470Z,18.10
2019-04-01T11:08:27.988Z,21.77
2019-04-01T11:11:22.326Z,16.30
2019-04-01T11:14:11.079Z,20.60
2019-04-01T11:16:59.606Z,20.53
2019-04-01T11:19:48.006Z,17.93
2019-04-01T11:22:36.424Z,16.80
2019-04-01T11:25:24.870Z,16.80
2019-04-01T11:28:13.318Z,24.03
2019-04-01T11:31:01.795Z,19.00
2019-04-01T11:33:50.265Z,20.50
2019-04-01T11:36:38.707Z,19.50
2019-04-01T11:39:27.117Z,18.57
2019-04-01T11:42:15.684Z,32.53
2019-04-01T11:45:05.947Z,19.70
2019-04-01T11:47:54.635Z,19.80
2019-04-01T11:50:35.568Z,17.47
2019-04-01T11:53:16.899Z,24.00
2019-04-01T11:55:57.886Z,19.80
2019-04-01T11:58:39.444Z,20.13
2019-04-01T12:01:20.695Z,21.07
2019-04-01T12:04:01.837Z,16.83
2019-04-01T12:06:42.434Z,20.70
2019-04-01T12:09:23.892Z,18.57
2019-04-01T12:12:05.254Z,24.40
2019-04-01T12:14:46.775Z,16.87
2019-04-01T12:17:28.324Z,16.03
2019-04-01T12:20:09.606Z,23.40
2019-04-01T12:22:50.824Z,20.40
2019-04-01T12:25:32.130Z,16.87
2019-04-01T12:28:14.238Z,20.37
2019-04-01T12:30:55.777Z,22.83
2019-04-01T12:33:36.922Z,23.03
2019-04-01T12:36:19.199Z,18.77
2019-04-01T12:39:00.258Z,22.77
2019-04-01T12:41:41.625Z,21.20
2019-04-01T12:44:11.246Z,22.03
2019-04-01T12:47:01.237Z,22.57
2019-04-01T12:49:45.030Z,23.90
2019-04-01T12:52:25.623Z,23.43
2019-04-01T12:55:08.907Z,25.33
2019-04-01T12:57:50.906Z,23.70
2019-04-01T13:00:32.409Z,25.40
2019-04-01T13:03:12.977Z,22.53
2019-04-01T13:05:54.332Z,22.90
2019-04-01T13:08:35.498Z,27.50
2019-04-01T13:11:16.599Z,25.50
2019-04-01T13:13:57.102Z,24.10
2019-04-01T13:16:38.617Z,24.97
2019-04-01T13:19:19.481Z,25.30
2019-04-01T13:22:00.811Z,26.07
2019-04-01T13:24:41.655Z,26.30
2019-04-01T13:27:22.811Z,27.53
2019-04-01T13:30:04.058Z,28.07
2019-04-01T13:32:45.695Z,27.83
2019-04-01T13:35:26.790Z,24.00
2019-04-01T13:38:11.065Z,26.53
2019-04-01T13:40:51.290Z,24.80
2019-04-01T13:43:32.339Z,26.83
2019-04-01T13:49:08.165Z,24.10
2019-04-01T13:54:39.480Z,27.30
2019-04-01T13:57:20.964Z,25.83
2019-04-01T14:00:01.826Z,26.80
2019-04-01T14:02:43.078Z,22.33
2019-04-01T14:05:25.085Z,25.83
2019-04-01T14:08:07.112Z,25.87
2019-04-01T14:10:55.935Z,27.00
2019-04-01T14:13:33.536Z,26.77
2019-04-01T14:16:17.024Z,25.00
2019-04-01T14:18:58.364Z,22.77
2019-04-01T14:27:34.172Z,21.10
2019-04-01T14:30:15.011Z,25.33
2019-04-01T14:32:56.032Z,21.87
2019-04-01T14:35:38.829Z,22.90
2019-04-01T14:38:23.684Z,27.27
2019-04-01T14:41:05.217Z,23.90
2019-04-01T14:43:46.410Z,29.30
2019-04-01T14:46:27.820Z,23.00
2019-04-01T14:54:55.113Z,23.90
2019-04-01T14:57:36.663Z,35.70
2019-04-01T15:00:20.738Z,19.10
2019-04-01T15:03:01.373Z,22.37
2019-04-01T15:05:42.697Z,30.37
2019-04-01T15:08:25.569Z,30.23
2019-04-01T15:10:55.043Z,23.57
2019-04-01T15:16:36.412Z,23.43
2019-04-01T15:19:26.099Z,22.17
2019-04-01T15:22:15.286Z,26.93
2019-04-01T15:25:03.858Z,21.27
2019-04-01T15:27:52.395Z,21.70
2019-04-01T15:30:41.171Z,26.90
2019-04-01T15:33:29.632Z,23.90
2019-04-01T15:36:18.276Z,24.77
2019-04-01T15:39:06.880Z,24.33
2019-04-01T15:41:48.021Z,18.17
2019-04-01T15:44:29.615Z,21.67
2019-04-01T15:47:10.724Z,20.20
2019-04-01T15:49:52.256Z,23.70
2019-04-01T15:52:34.579Z,21.07
2019-04-01T15:55:16.147Z,22.37
2019-04-01T15:57:57.501Z,21.70
2019-04-01T16:00:38.935Z,21.20
2019-04-01T16:03:20.003Z,22.00
2019-04-01T16:06:02.968Z,32.10
2019-04-01T16:08:32.701Z,25.37
2019-04-01T16:11:21.133Z,23.40
2019-04-01T16:14:11.132Z,24.93
2019-04-01T16:16:59.809Z,26.63
2019-04-01T16:19:48.317Z,23.00
2019-04-01T16:22:36.708Z,29.10
2019-04-01T16:25:25.227Z,27.77
2019-04-01T16:28:13.720Z,18.40
2019-04-01T16:31:02.158Z,30.80
2019-04-01T16:33:50.595Z,24.97
2019-04-01T16:36:39.004Z,21.63
2019-04-01T16:39:27.391Z,27.60
2019-04-01T16:42:08.722Z,20.33
2019-04-01T16:44:49.332Z,27.17
2019-04-01T16:47:30.576Z,25.77
2019-04-01T16:50:14.674Z,22.77
2019-04-01T16:52:55.911Z,27.27
2019-04-01T16:55:37.114Z,25.60
2019-04-01T16:58:17.883Z,27.47
2019-04-01T17:00:58.599Z,26.47
2019-04-01T17:03:39.790Z,34.00
2019-04-01T17:06:20.558Z,25.30
2019-04-01T17:09:01.447Z,26.13
2019-04-01T17:11:42.851Z,24.93
2019-04-01T17:14:24.417Z,26.60
2019-04-01T17:17:06.392Z,26.40
2019-04-01T17:19:47.431Z,29.40
2019-04-01T17:22:30.081Z,19.97
2019-04-01T17:25:11.598Z,26.53
2019-04-01T17:27:52.588Z,26.17
2019-04-01T17:39:05.037Z,24.47
2019-04-01T17:41:48.237Z,31.27
2019-04-01T17:44:29.746Z,31.17
2019-04-01T17:50:12.042Z,24.93
2019-04-01T17:52:53.997Z,28.70
2019-04-01T17:55:34.925Z,27.67
2019-04-01T17:58:16.199Z,28.27
2019-04-01T18:00:58.539Z,27.90
2019-04-01T18:03:39.959Z,26.03
2019-04-01T18:06:21.788Z,26.43
2019-04-01T18:08:52.319Z,25.37
2019-04-01T18:11:41.595Z,31.20
2019-04-01T18:14:30.426Z,27.37
2019-04-01T18:17:18.834Z,24.70
2019-04-01T18:20:07.266Z,28.77
2019-04-01T18:22:56.962Z,24.67
2019-04-01T18:25:45.842Z,29.60
2019-04-01T18:28:34.392Z,32.60
2019-04-01T18:31:22.843Z,29.03
2019-04-01T18:34:11.577Z,36.33
2019-04-01T18:36:59.979Z,23.50
2019-04-01T18:39:48.137Z,23.77
2019-04-01T18:42:26.545Z,23.17
2019-04-01T18:45:06.464Z,30.50
2019-04-01T18:47:50.396Z,27.43
2019-04-01T18:50:35.472Z,24.70
2019-04-01T18:53:16.592Z,26.90
2019-04-01T18:55:57.450Z,29.13
2019-04-01T18:58:38.446Z,29.20
2019-04-01T19:01:08.339Z,28.17
2019-04-01T19:04:19.738Z,31.20
2019-04-01T19:07:09.150Z,33.00
2019-04-01T19:13:31.257Z,26.70
2019-04-01T19:16:22.946Z,21.33
2019-04-01T19:19:11.249Z,29.83
2019-04-01T19:22:00.615Z,32.27
2019-04-01T19:24:49.372Z,29.50
2019-04-01T19:27:37.928Z,31.17
2019-04-01T19:30:26.466Z,22.83
2019-04-01T19:33:14.889Z,30.40
2019-04-01T19:36:03.366Z,30.67
2019-04-01T19:38:51.822Z,25.20
2019-04-01T19:41:32.938Z,27.93
2019-04-01T19:44:17.707Z,35.37
2019-04-01T19:46:47.601Z,26.90
2019-04-01T19:49:17.188Z,26.47
2019-04-01T19:51:46.553Z,31.43
2019-04-01T19:54:16.325Z,31.70
2019-04-01T19:56:47.143Z,32.20
2019-04-01T19:59:16.491Z,30.93
2019-04-01T20:01:46.651Z,24.57
2019-04-01T20:04:16.005Z,27.53
2019-04-01T20:06:47.119Z,26.53
2019-04-01T20:09:17.977Z,27.80
2019-04-01T20:11:47.489Z,27.03
2019-04-01T20:14:16.805Z,29.47
2019-04-01T20:16:47.141Z,33.13
2019-04-01T20:19:16.675Z,23.53
2019-04-01T20:21:47.335Z,34.30
2019-04-01T20:24:17.001Z,36.23
2019-04-01T20:26:47.116Z,33.20
2019-04-01T20:29:16.685Z,27.23
2019-04-01T20:31:46.016Z,25.40
2019-04-01T20:34:20.038Z,25.57
2019-04-01T20:36:46.609Z,30.47
2019-04-01T20:39:16.484Z,21.00
2019-04-01T20:41:46.390Z,25.47
2019-04-01T20:44:15.814Z,29.97
2019-04-01T20:46:45.149Z,29.83
2019-04-01T20:49:14.547Z,26.30
2019-04-01T20:51:43.867Z,29.70
2019-04-01T20:54:16.186Z,27.20
2019-04-01T20:56:46.034Z,27.50
2019-04-01T20:59:15.353Z,33.90
2019-04-01T21:01:44.694Z,24.50
2019-04-01T21:04:14.422Z,21.43
2019-04-01T21:06:43.743Z,26.13
2019-04-01T21:09:13.098Z,26.67
2019-04-01T21:11:42.404Z,22.83
2019-04-01T21:14:11.709Z,26.13
2019-04-01T21:16:41.006Z,23.53
2019-04-01T21:19:10.406Z,25.97
2019-04-01T21:21:39.920Z,31.20
2019-04-01T21:24:09.273Z,29.77
2019-04-01T21:26:38.577Z,28.40
2019-04-01T21:29:07.904Z,26.00
2019-04-01T21:31:37.276Z,26.57
2019-04-01T21:34:07.842Z,25.67
2019-04-01T21:36:37.534Z,26.27
2019-04-01T21:39:07.725Z,28.13
2019-04-01T21:41:37.014Z,25.43
2019-04-01T21:44:06.267Z,29.73
2019-04-01T21:46:35.475Z,28.53
2019-04-01T21:49:04.805Z,24.20
2019-04-01T21:51:35.539Z,25.97
2019-04-01T21:54:05.007Z,25.07
2019-04-01T21:56:34.602Z,24.07
2019-04-01T21:59:04.280Z,27.13
2019-04-01T22:01:33.790Z,27.73
2019-04-01T22:04:06.253Z,32.23
2019-04-01T22:06:35.582Z,23.07
2019-04-01T22:09:07.634Z,25.43
2019-04-01T22:11:36.927Z,23.27
2019-04-01T22:14:06.501Z,21.53
2019-04-01T22:16:35.940Z,27.80
2019-04-01T22:19:05.330Z,28.00
2019-04-01T22:21:34.769Z,23.50
2019-04-01T22:24:04.667Z,26.90
2019-04-01T22:26:33.984Z,25.27
2019-04-01T22:29:03.311Z,25.50
2019-04-01T22:31:32.593Z,24.80
2019-04-01T22:34:01.974Z,25.83
2019-04-01T22:36:31.536Z,23.57
2019-04-01T22:39:01.032Z,24.17
2019-04-01T22:41:31.464Z,22.10
2019-04-01T22:44:00.783Z,29.40
2019-04-01T22:46:30.117Z,23.73
2019-04-01T22:48:59.422Z,25.70
2019-04-01T22:51:28.861Z,26.40
2019-04-01T22:53:58.492Z,26.63
2019-04-01T22:56:27.830Z,31.53
2019-04-01T22:58:57.198Z,24.40
2019-04-01T23:01:26.538Z,27.77
2019-04-01T23:03:55.866Z,26.60
2019-04-01T23:06:26.788Z,29.17
2019-04-01T23:08:56.381Z,26.63
2019-04-01T23:11:25.634Z,27.70
2019-04-01T23:13:54.928Z,23.57
2019-04-01T23:16:24.339Z,30.27
2019-04-01T23:18:53.610Z,27.60
2019-04-01T23:21:22.946Z,33.47
2019-04-01T23:23:52.196Z,32.60
2019-04-01T23:26:21.548Z,24.90
2019-04-01T23:28:50.904Z,27.20
2019-04-01T23:31:20.613Z,23.17
2019-04-01T23:33:50.135Z,35.37
2019-04-01T23:36:19.486Z,29.00
2019-04-01T23:38:48.791Z,24.30
2019-04-01T23:41:18.487Z,27.97
2019-04-01T23:43:47.789Z,24.77
2019-04-01T23:46:18.906Z,29.00
2019-04-01T23:48:48.289Z,27.03
2019-04-01T23:51:17.585Z,26.07
2019-04-01T23:53:46.889Z,31.93
2019-04-01T23:56:16.180Z,29.57
2019-04-01T23:58:45.503Z,26.37
